sensor_id;sensor_type;location;lat;lon;timestamp;P1;durP1;ratioP1;P2;durP2;ratioP2
26686;SDS011;14298;50.900;4.648;2023-06-19T00:00:37;2.27;;;1.40;;
26686;SDS011;14298;50.900;4.648;2023-06-19T00:03:07;1.33;;;0.70;;
26686;SDS011;14298;50.900;4.648;2023-06-19T00:05:35;4.23;;;1.23;;
26686;SDS011;14298;50.900;4.648;2023-06-19T00:08:03;1.20;;;1.10;;
26686;SDS011;14298;50.900;4.648;2023-06-19T00:10:33;1.40;;;1.23;;
26686;SDS011;14298;50.900;4.648;2023-06-19T00:13:01;1.77;;;1.50;;
26686;SDS011;14298;50.900;4.648;2023-06-19T00:15:29;1.33;;;1.20;;
26686;SDS011;14298;50.900;4.648;2023-06-19T00:17:57;1.83;;;1.23;;
26686;SDS011;14298;50.900;4.648;2023-06-19T00:20:26;1.10;;;1.00;;
26686;SDS011;14298;50.900;4.648;2023-06-19T00:22:54;1.50;;;1.40;;
26686;SDS011;14298;50.900;4.648;2023-06-19T00:25:22;5.70;;;1.93;;
26686;SDS011;14298;50.900;4.648;2023-06-19T00:27:50;1.57;;;1.27;;
26686;SDS011;14298;50.900;4.648;2023-06-19T00:30:18;2.60;;;1.30;;
26686;SDS011;14298;50.900;4.648;2023-06-19T00:32:46;2.30;;;0.73;;
26686;SDS011;14298;50.900;4.648;2023-06-19T00:35:14;0.77;;;0.77;;
26686;SDS011;14298;50.900;4.648;2023-06-19T00:37:43;0.93;;;0.80;;
26686;SDS011;14298;50.900;4.648;2023-06-19T00:40:28;3.50;;;1.00;;
26686;SDS011;14298;50.900;4.648;2023-06-19T00:42:44;1.07;;;0.90;;
26686;SDS011;14298;50.900;4.648;2023-06-19T00:45:12;1.13;;;1.03;;
26686;SDS011;14298;50.900;4.648;2023-06-19T00:47:40;0.60;;;0.60;;
26686;SDS011;14298;50.900;4.648;2023-06-19T00:50:08;1.73;;;0.83;;
26686;SDS011;14298;50.900;4.648;2023-06-19T00:52:36;1.80;;;1.43;;
26686;SDS011;14298;50.900;4.648;2023-06-19T00:55:04;0.70;;;0.70;;
26686;SDS011;14298;50.900;4.648;2023-06-19T00:57:33;0.97;;;0.97;;
26686;SDS011;14298;50.900;4.648;2023-06-19T01:00:01;0.93;;;0.93;;
26686;SDS011;14298;50.900;4.648;2023-06-19T01:02:31;0.63;;;0.63;;
26686;SDS011;14298;50.900;4.648;2023-06-19T01:04:59;0.93;;;0.73;;
26686;SDS011;14298;50.900;4.648;2023-06-19T01:07:29;1.53;;;1.43;;
26686;SDS011;14298;50.900;4.648;2023-06-19T01:09:59;1.30;;;0.90;;
26686;SDS011;14298;50.900;4.648;2023-06-19T01:12:28;1.50;;;1.03;;
26686;SDS011;14298;50.900;4.648;2023-06-19T01:15:00;1.23;;;1.00;;
26686;SDS011;14298;50.900;4.648;2023-06-19T01:17:29;1.40;;;0.83;;
26686;SDS011;14298;50.900;4.648;2023-06-19T01:19:57;1.10;;;1.00;;
26686;SDS011;14298;50.900;4.648;2023-06-19T01:22:32;1.07;;;0.97;;
26686;SDS011;14298;50.900;4.648;2023-06-19T01:25:02;1.67;;;1.10;;
26686;SDS011;14298;50.900;4.648;2023-06-19T01:27:33;0.77;;;0.63;;
26686;SDS011;14298;50.900;4.648;2023-06-19T01:35:36;4.30;;;0.97;;
26686;SDS011;14298;50.900;4.648;2023-06-19T01:38:04;1.20;;;1.10;;
26686;SDS011;14298;50.900;4.648;2023-06-19T01:40:34;1.10;;;1.00;;
26686;SDS011;14298;50.900;4.648;2023-06-19T01:43:02;1.23;;;0.93;;
26686;SDS011;14298;50.900;4.648;2023-06-19T01:45:32;1.30;;;1.20;;
26686;SDS011;14298;50.900;4.648;2023-06-19T01:48:00;1.43;;;1.30;;
26686;SDS011;14298;50.900;4.648;2023-06-19T01:50:28;1.20;;;1.10;;
26686;SDS011;14298;50.900;4.648;2023-06-19T01:52:56;7.10;;;1.03;;
26686;SDS011;14298;50.900;4.648;2023-06-19T01:55:25;1.17;;;1.00;;
26686;SDS011;14298;50.900;4.648;2023-06-19T01:57:53;1.10;;;1.00;;
26686;SDS011;14298;50.900;4.648;2023-06-19T02:00:21;0.90;;;0.90;;
26686;SDS011;14298;50.900;4.648;2023-06-19T02:02:49;2.30;;;1.10;;
26686;SDS011;14298;50.900;4.648;2023-06-19T02:05:17;1.60;;;1.40;;
26686;SDS011;14298;50.900;4.648;2023-06-19T02:07:45;1.03;;;0.97;;
26686;SDS011;14298;50.900;4.648;2023-06-19T02:10:13;1.03;;;0.70;;
26686;SDS011;14298;50.900;4.648;2023-06-19T02:12:41;1.33;;;1.10;;
26686;SDS011;14298;50.900;4.648;2023-06-19T02:15:10;1.23;;;1.00;;
26686;SDS011;14298;50.900;4.648;2023-06-19T02:17:38;0.70;;;0.70;;
26686;SDS011;14298;50.900;4.648;2023-06-19T02:20:06;1.40;;;1.10;;
26686;SDS011;14298;50.900;4.648;2023-06-19T02:22:39;1.23;;;1.13;;
26686;SDS011;14298;50.900;4.648;2023-06-19T02:25:08;1.50;;;1.10;;
26686;SDS011;14298;50.900;4.648;2023-06-19T02:27:36;1.63;;;1.03;;
26686;SDS011;14298;50.900;4.648;2023-06-19T02:30:04;0.87;;;0.87;;
26686;SDS011;14298;50.900;4.648;2023-06-19T02:32:32;1.23;;;1.13;;
26686;SDS011;14298;50.900;4.648;2023-06-19T02:35:00;0.83;;;0.83;;
26686;SDS011;14298;50.900;4.648;2023-06-19T02:37:28;1.67;;;1.17;;
26686;SDS011;14298;50.900;4.648;2023-06-19T02:39:56;0.90;;;0.90;;
26686;SDS011;14298;50.900;4.648;2023-06-19T02:42:25;1.53;;;1.23;;
26686;SDS011;14298;50.900;4.648;2023-06-19T02:44:53;1.90;;;1.27;;
26686;SDS011;14298;50.900;4.648;2023-06-19T02:47:21;1.63;;;1.53;;
26686;SDS011;14298;50.900;4.648;2023-06-19T02:49:49;1.33;;;1.23;;
26686;SDS011;14298;50.900;4.648;2023-06-19T02:52:17;3.23;;;1.40;;
26686;SDS011;14298;50.900;4.648;2023-06-19T02:54:45;1.87;;;1.00;;
26686;SDS011;14298;50.900;4.648;2023-06-19T02:57:14;2.10;;;1.17;;
26686;SDS011;14298;50.900;4.648;2023-06-19T02:59:42;1.20;;;1.10;;
26686;SDS011;14298;50.900;4.648;2023-06-19T03:02:12;1.33;;;1.23;;
26686;SDS011;14298;50.900;4.648;2023-06-19T03:04:40;1.60;;;1.30;;
26686;SDS011;14298;50.900;4.648;2023-06-19T03:07:08;3.23;;;1.50;;
26686;SDS011;14298;50.900;4.648;2023-06-19T03:09:36;5.13;;;1.73;;
26686;SDS011;14298;50.900;4.648;2023-06-19T03:12:04;1.10;;;1.00;;
26686;SDS011;14298;50.900;4.648;2023-06-19T03:14:32;0.93;;;0.93;;
26686;SDS011;14298;50.900;4.648;2023-06-19T03:17:00;1.23;;;1.13;;
26686;SDS011;14298;50.900;4.648;2023-06-19T03:19:28;1.77;;;1.13;;
26686;SDS011;14298;50.900;4.648;2023-06-19T03:21:57;1.47;;;1.37;;
26686;SDS011;14298;50.900;4.648;2023-06-19T03:24:25;2.20;;;1.57;;
26686;SDS011;14298;50.900;4.648;2023-06-19T03:26:53;2.07;;;1.63;;
26686;SDS011;14298;50.900;4.648;2023-06-19T03:29:21;1.60;;;1.50;;
26686;SDS011;14298;50.900;4.648;2023-06-19T03:31:49;3.20;;;2.00;;
26686;SDS011;14298;50.900;4.648;2023-06-19T03:34:17;2.83;;;2.20;;
26686;SDS011;14298;50.900;4.648;2023-06-19T03:36:45;3.77;;;1.77;;
26686;SDS011;14298;50.900;4.648;2023-06-19T03:39:13;1.73;;;1.63;;
26686;SDS011;14298;50.900;4.648;2023-06-19T03:41:41;1.93;;;1.77;;
26686;SDS011;14298;50.900;4.648;2023-06-19T03:44:09;2.20;;;2.00;;
26686;SDS011;14298;50.900;4.648;2023-06-19T03:46:37;2.43;;;1.57;;
26686;SDS011;14298;50.900;4.648;2023-06-19T03:49:05;3.83;;;2.10;;
26686;SDS011;14298;50.900;4.648;2023-06-19T03:51:35;3.63;;;1.77;;
26686;SDS011;14298;50.900;4.648;2023-06-19T03:54:03;2.30;;;2.13;;
26686;SDS011;14298;50.900;4.648;2023-06-19T03:56:31;3.93;;;2.53;;
26686;SDS011;14298;50.900;4.648;2023-06-19T03:58:59;2.07;;;1.97;;
26686;SDS011;14298;50.900;4.648;2023-06-19T04:01:29;2.30;;;2.10;;
26686;SDS011;14298;50.900;4.648;2023-06-19T04:03:57;3.03;;;2.67;;
26686;SDS011;14298;50.900;4.648;2023-06-19T04:06:26;2.40;;;1.87;;
26686;SDS011;14298;50.900;4.648;2023-06-19T04:08:54;2.73;;;2.20;;
26686;SDS011;14298;50.900;4.648;2023-06-19T04:11:22;2.97;;;1.97;;
26686;SDS011;14298;50.900;4.648;2023-06-19T04:13:50;2.47;;;2.27;;
26686;SDS011;14298;50.900;4.648;2023-06-19T04:16:18;3.87;;;2.83;;
26686;SDS011;14298;50.900;4.648;2023-06-19T04:18:46;3.30;;;2.40;;
26686;SDS011;14298;50.900;4.648;2023-06-19T04:21:14;2.47;;;2.27;;
26686;SDS011;14298;50.900;4.648;2023-06-19T04:23:42;4.57;;;3.77;;
26686;SDS011;14298;50.900;4.648;2023-06-19T04:26:10;3.67;;;3.33;;
26686;SDS011;14298;50.900;4.648;2023-06-19T04:28:38;5.90;;;4.20;;
26686;SDS011;14298;50.900;4.648;2023-06-19T04:31:06;4.80;;;3.73;;
26686;SDS011;14298;50.900;4.648;2023-06-19T04:33:34;5.13;;;3.57;;
26686;SDS011;14298;50.900;4.648;2023-06-19T04:36:02;6.57;;;3.27;;
26686;SDS011;14298;50.900;4.648;2023-06-19T04:38:30;3.87;;;3.57;;
26686;SDS011;14298;50.900;4.648;2023-06-19T04:40:58;3.23;;;2.93;;
26686;SDS011;14298;50.900;4.648;2023-06-19T04:43:26;3.47;;;3.17;;
26686;SDS011;14298;50.900;4.648;2023-06-19T04:45:54;4.47;;;3.63;;
26686;SDS011;14298;50.900;4.648;2023-06-19T04:48:22;5.13;;;3.00;;
26686;SDS011;14298;50.900;4.648;2023-06-19T04:50:52;3.23;;;2.80;;
26686;SDS011;14298;50.900;4.648;2023-06-19T04:53:21;2.90;;;2.13;;
26686;SDS011;14298;50.900;4.648;2023-06-19T04:55:49;3.53;;;2.37;;
26686;SDS011;14298;50.900;4.648;2023-06-19T04:58:18;4.23;;;3.27;;
26686;SDS011;14298;50.900;4.648;2023-06-19T05:00:48;2.63;;;2.30;;
26686;SDS011;14298;50.900;4.648;2023-06-19T05:03:17;2.03;;;1.90;;
26686;SDS011;14298;50.900;4.648;2023-06-19T05:05:46;5.97;;;2.97;;
26686;SDS011;14298;50.900;4.648;2023-06-19T05:08:14;3.07;;;2.20;;
26686;SDS011;14298;50.900;4.648;2023-06-19T05:10:42;2.73;;;1.80;;
26686;SDS011;14298;50.900;4.648;2023-06-19T05:13:10;3.33;;;2.60;;
26686;SDS011;14298;50.900;4.648;2023-06-19T05:15:38;2.27;;;1.80;;
26686;SDS011;14298;50.900;4.648;2023-06-19T05:18:06;2.20;;;1.97;;
26686;SDS011;14298;50.900;4.648;2023-06-19T05:20:34;3.30;;;2.43;;
26686;SDS011;14298;50.900;4.648;2023-06-19T05:23:02;2.13;;;1.93;;
26686;SDS011;14298;50.900;4.648;2023-06-19T05:25:30;3.33;;;2.87;;
26686;SDS011;14298;50.900;4.648;2023-06-19T05:27:58;3.57;;;2.80;;
26686;SDS011;14298;50.900;4.648;2023-06-19T05:30:26;2.37;;;2.17;;
26686;SDS011;14298;50.900;4.648;2023-06-19T05:32:54;2.20;;;1.83;;
26686;SDS011;14298;50.900;4.648;2023-06-19T05:35:22;4.03;;;2.73;;
26686;SDS011;14298;50.900;4.648;2023-06-19T05:37:50;3.33;;;2.10;;
26686;SDS011;14298;50.900;4.648;2023-06-19T05:40:18;3.20;;;2.70;;
26686;SDS011;14298;50.900;4.648;2023-06-19T05:42:46;5.67;;;2.17;;
26686;SDS011;14298;50.900;4.648;2023-06-19T05:45:14;2.83;;;2.13;;
26686;SDS011;14298;50.900;4.648;2023-06-19T05:47:42;2.97;;;2.20;;
26686;SDS011;14298;50.900;4.648;2023-06-19T05:50:10;3.90;;;2.50;;
26686;SDS011;14298;50.900;4.648;2023-06-19T05:52:38;1.93;;;1.57;;
26686;SDS011;14298;50.900;4.648;2023-06-19T05:55:08;2.27;;;1.80;;
26686;SDS011;14298;50.900;4.648;2023-06-19T05:57:36;2.00;;;1.67;;
26686;SDS011;14298;50.900;4.648;2023-06-19T06:00:04;2.33;;;2.13;;
26686;SDS011;14298;50.900;4.648;2023-06-19T06:02:33;3.40;;;2.17;;
26686;SDS011;14298;50.900;4.648;2023-06-19T06:05:01;2.13;;;1.97;;
26686;SDS011;14298;50.900;4.648;2023-06-19T06:07:30;2.60;;;2.30;;
26686;SDS011;14298;50.900;4.648;2023-06-19T06:09:58;2.97;;;2.23;;
26686;SDS011;14298;50.900;4.648;2023-06-19T06:12:26;3.03;;;2.73;;
26686;SDS011;14298;50.900;4.648;2023-06-19T06:14:54;2.30;;;2.10;;
26686;SDS011;14298;50.900;4.648;2023-06-19T06:17:22;2.73;;;2.30;;
26686;SDS011;14298;50.900;4.648;2023-06-19T06:19:50;3.20;;;2.40;;
26686;SDS011;14298;50.900;4.648;2023-06-19T06:22:18;3.43;;;2.20;;
26686;SDS011;14298;50.900;4.648;2023-06-19T06:24:46;4.90;;;2.50;;
26686;SDS011;14298;50.900;4.648;2023-06-19T06:27:14;2.73;;;2.17;;
26686;SDS011;14298;50.900;4.648;2023-06-19T06:29:43;4.80;;;2.77;;
26686;SDS011;14298;50.900;4.648;2023-06-19T06:32:11;2.93;;;2.33;;
26686;SDS011;14298;50.900;4.648;2023-06-19T06:34:39;3.00;;;2.40;;
26686;SDS011;14298;50.900;4.648;2023-06-19T06:37:07;4.83;;;2.63;;
26686;SDS011;14298;50.900;4.648;2023-06-19T06:39:35;3.83;;;2.40;;
26686;SDS011;14298;50.900;4.648;2023-06-19T06:42:03;3.00;;;2.13;;
26686;SDS011;14298;50.900;4.648;2023-06-19T06:44:31;4.07;;;2.20;;
26686;SDS011;14298;50.900;4.648;2023-06-19T06:46:59;2.87;;;2.27;;
26686;SDS011;14298;50.900;4.648;2023-06-19T06:49:28;3.33;;;2.03;;
26686;SDS011;14298;50.900;4.648;2023-06-19T06:51:56;2.63;;;2.43;;
26686;SDS011;14298;50.900;4.648;2023-06-19T06:54:24;5.60;;;2.63;;
26686;SDS011;14298;50.900;4.648;2023-06-19T06:56:52;2.73;;;2.47;;
26686;SDS011;14298;50.900;4.648;2023-06-19T06:59:21;4.00;;;2.97;;
26686;SDS011;14298;50.900;4.648;2023-06-19T07:01:50;2.80;;;1.97;;
26686;SDS011;14298;50.900;4.648;2023-06-19T07:04:18;3.53;;;2.53;;
26686;SDS011;14298;50.900;4.648;2023-06-19T07:06:46;5.13;;;2.70;;
26686;SDS011;14298;50.900;4.648;2023-06-19T07:09:14;2.93;;;2.27;;
26686;SDS011;14298;50.900;4.648;2023-06-19T07:11:42;3.80;;;2.83;;
26686;SDS011;14298;50.900;4.648;2023-06-19T07:14:10;3.90;;;2.73;;
26686;SDS011;14298;50.900;4.648;2023-06-19T07:16:38;3.83;;;2.77;;
26686;SDS011;14298;50.900;4.648;2023-06-19T07:19:06;3.57;;;2.37;;
26686;SDS011;14298;50.900;4.648;2023-06-19T07:21:34;4.07;;;2.30;;
26686;SDS011;14298;50.900;4.648;2023-06-19T07:24:02;2.50;;;2.27;;
26686;SDS011;14298;50.900;4.648;2023-06-19T07:26:30;3.37;;;1.97;;
26686;SDS011;14298;50.900;4.648;2023-06-19T07:28:58;2.10;;;1.83;;
26686;SDS011;14298;50.900;4.648;2023-06-19T07:31:26;3.37;;;3.03;;
26686;SDS011;14298;50.900;4.648;2023-06-19T07:33:54;7.17;;;3.37;;
26686;SDS011;14298;50.900;4.648;2023-06-19T07:36:22;3.63;;;2.40;;
26686;SDS011;14298;50.900;4.648;2023-06-19T07:38:51;4.40;;;3.10;;
26686;SDS011;14298;50.900;4.648;2023-06-19T07:41:20;3.40;;;2.27;;
26686;SDS011;14298;50.900;4.648;2023-06-19T07:43:48;4.67;;;2.53;;
26686;SDS011;14298;50.900;4.648;2023-06-19T07:46:16;3.57;;;2.43;;
26686;SDS011;14298;50.900;4.648;2023-06-19T07:48:44;2.97;;;2.70;;
26686;SDS011;14298;50.900;4.648;2023-06-19T07:51:12;2.67;;;2.43;;
26686;SDS011;14298;50.900;4.648;2023-06-19T07:53:40;4.53;;;2.60;;
26686;SDS011;14298;50.900;4.648;2023-06-19T07:56:09;2.37;;;2.17;;
26686;SDS011;14298;50.900;4.648;2023-06-19T07:58:37;3.03;;;2.57;;
26686;SDS011;14298;50.900;4.648;2023-06-19T08:01:06;2.57;;;2.37;;
26686;SDS011;14298;50.900;4.648;2023-06-19T08:03:34;5.13;;;3.20;;
26686;SDS011;14298;50.900;4.648;2023-06-19T08:06:02;2.63;;;2.43;;
26686;SDS011;14298;50.900;4.648;2023-06-19T08:08:30;2.10;;;1.87;;
26686;SDS011;14298;50.900;4.648;2023-06-19T08:10:58;2.17;;;1.97;;
26686;SDS011;14298;50.900;4.648;2023-06-19T08:13:26;3.65;;;2.02;;
26686;SDS011;14298;50.900;4.648;2023-06-19T08:15:54;4.10;;;2.90;;
26686;SDS011;14298;50.900;4.648;2023-06-19T08:18:22;2.60;;;2.37;;
26686;SDS011;14298;50.900;4.648;2023-06-19T08:20:50;4.00;;;2.67;;
26686;SDS011;14298;50.900;4.648;2023-06-19T08:23:18;4.37;;;2.10;;
26686;SDS011;14298;50.900;4.648;2023-06-19T08:25:46;4.50;;;2.55;;
26686;SDS011;14298;50.900;4.648;2023-06-19T08:28:14;3.40;;;2.70;;
26686;SDS011;14298;50.900;4.648;2023-06-19T08:30:44;5.62;;;2.45;;
26686;SDS011;14298;50.900;4.648;2023-06-19T08:33:13;4.35;;;2.47;;
26686;SDS011;14298;50.900;4.648;2023-06-19T08:35:41;2.22;;;2.02;;
26686;SDS011;14298;50.900;4.648;2023-06-19T08:38:09;3.58;;;2.27;;
26686;SDS011;14298;50.900;4.648;2023-06-19T08:40:37;3.17;;;2.65;;
26686;SDS011;14298;50.900;4.648;2023-06-19T08:43:05;2.58;;;1.92;;
26686;SDS011;14298;50.900;4.648;2023-06-19T08:45:33;2.42;;;1.57;;
26686;SDS011;14298;50.900;4.648;2023-06-19T08:48:01;2.27;;;1.65;;
26686;SDS011;14298;50.900;4.648;2023-06-19T08:50:31;2.52;;;2.33;;
26686;SDS011;14298;50.900;4.648;2023-06-19T08:52:59;2.87;;;2.10;;
26686;SDS011;14298;50.900;4.648;2023-06-19T08:55:27;4.78;;;1.90;;
26686;SDS011;14298;50.900;4.648;2023-06-19T08:57:55;3.42;;;2.27;;
26686;SDS011;14298;50.900;4.648;2023-06-19T09:00:24;4.03;;;2.55;;
26686;SDS011;14298;50.900;4.648;2023-06-19T09:02:52;2.17;;;1.57;;
26686;SDS011;14298;50.900;4.648;2023-06-19T09:05:21;2.20;;;1.82;;
26686;SDS011;14298;50.900;4.648;2023-06-19T09:07:57;2.33;;;2.12;;
26686;SDS011;14298;50.900;4.648;2023-06-19T09:10:27;2.15;;;1.82;;
26686;SDS011;14298;50.900;4.648;2023-06-19T09:13:06;3.70;;;2.27;;
26686;SDS011;14298;50.900;4.648;2023-06-19T09:18:18;2.58;;;1.52;;
26686;SDS011;14298;50.900;4.648;2023-06-19T09:20:47;2.60;;;2.10;;
26686;SDS011;14298;50.900;4.648;2023-06-19T09:26:02;4.30;;;2.60;;
26686;SDS011;14298;50.900;4.648;2023-06-19T09:28:30;5.83;;;2.40;;
26686;SDS011;14298;50.900;4.648;2023-06-19T09:30:59;2.12;;;1.80;;
26686;SDS011;14298;50.900;4.648;2023-06-19T09:33:28;2.77;;;2.15;;
26686;SDS011;14298;50.900;4.648;2023-06-19T09:35:57;3.90;;;2.52;;
26686;SDS011;14298;50.900;4.648;2023-06-19T09:38:26;3.33;;;2.30;;
26686;SDS011;14298;50.900;4.648;2023-06-19T09:40:56;5.65;;;2.25;;
26686;SDS011;14298;50.900;4.648;2023-06-19T09:43:33;2.58;;;1.82;;
26686;SDS011;14298;50.900;4.648;2023-06-19T09:45:55;4.00;;;2.98;;
26686;SDS011;14298;50.900;4.648;2023-06-19T09:48:26;1.77;;;1.47;;
26686;SDS011;14298;50.900;4.648;2023-06-19T09:50:52;3.00;;;2.58;;
26686;SDS011;14298;50.900;4.648;2023-06-19T09:53:22;5.03;;;2.90;;
26686;SDS011;14298;50.900;4.648;2023-06-19T09:55:50;3.55;;;2.20;;
26686;SDS011;14298;50.900;4.648;2023-06-19T09:58:19;3.17;;;2.65;;
26686;SDS011;14298;50.900;4.648;2023-06-19T10:00:47;5.25;;;3.15;;
26686;SDS011;14298;50.900;4.648;2023-06-19T10:03:17;3.75;;;2.50;;
26686;SDS011;14298;50.900;4.648;2023-06-19T10:05:45;3.70;;;2.70;;
26686;SDS011;14298;50.900;4.648;2023-06-19T10:08:13;2.85;;;2.08;;
26686;SDS011;14298;50.900;4.648;2023-06-19T10:10:47;2.70;;;2.17;;
26686;SDS011;14298;50.900;4.648;2023-06-19T10:13:16;2.55;;;2.25;;
26686;SDS011;14298;50.900;4.648;2023-06-19T10:15:44;3.52;;;1.95;;
26686;SDS011;14298;50.900;4.648;2023-06-19T10:18:15;3.45;;;2.30;;
26686;SDS011;14298;50.900;4.648;2023-06-19T10:20:45;2.33;;;2.12;;
26686;SDS011;14298;50.900;4.648;2023-06-19T10:23:17;3.52;;;2.37;;
26686;SDS011;14298;50.900;4.648;2023-06-19T10:25:46;4.95;;;2.37;;
26686;SDS011;14298;50.900;4.648;2023-06-19T10:28:18;3.65;;;2.70;;
26686;SDS011;14298;50.900;4.648;2023-06-19T10:33:26;3.10;;;2.50;;
26686;SDS011;14298;50.900;4.648;2023-06-19T10:35:54;3.27;;;2.27;;
26686;SDS011;14298;50.900;4.648;2023-06-19T10:38:22;2.65;;;2.45;;
26686;SDS011;14298;50.900;4.648;2023-06-19T10:40:50;3.98;;;2.40;;
26686;SDS011;14298;50.900;4.648;2023-06-19T10:43:22;6.40;;;2.95;;
26686;SDS011;14298;50.900;4.648;2023-06-19T10:45:52;6.03;;;2.83;;
26686;SDS011;14298;50.900;4.648;2023-06-19T10:48:20;7.65;;;3.25;;
26686;SDS011;14298;50.900;4.648;2023-06-19T10:50:48;4.03;;;2.90;;
26686;SDS011;14298;50.900;4.648;2023-06-19T10:53:30;8.93;;;3.05;;
26686;SDS011;14298;50.900;4.648;2023-06-19T10:55:59;3.02;;;2.62;;
26686;SDS011;14298;50.900;4.648;2023-06-19T10:58:27;4.05;;;2.40;;
26686;SDS011;14298;50.900;4.648;2023-06-19T11:00:56;2.92;;;2.40;;
26686;SDS011;14298;50.900;4.648;2023-06-19T11:03:24;2.85;;;2.12;;
26686;SDS011;14298;50.900;4.648;2023-06-19T11:05:52;3.87;;;2.65;;
26686;SDS011;14298;50.900;4.648;2023-06-19T11:08:21;2.25;;;1.80;;
26686;SDS011;14298;50.900;4.648;2023-06-19T11:10:49;3.87;;;2.47;;
26686;SDS011;14298;50.900;4.648;2023-06-19T11:13:18;3.00;;;2.50;;
26686;SDS011;14298;50.900;4.648;2023-06-19T11:15:49;3.05;;;2.22;;
26686;SDS011;14298;50.900;4.648;2023-06-19T11:18:18;2.95;;;2.17;;
26686;SDS011;14298;50.900;4.648;2023-06-19T11:20:50;3.05;;;2.67;;
26686;SDS011;14298;50.900;4.648;2023-06-19T11:23:37;3.60;;;2.15;;
26686;SDS011;14298;50.900;4.648;2023-06-19T11:25:51;2.00;;;1.80;;
26686;SDS011;14298;50.900;4.648;2023-06-19T11:28:19;2.75;;;2.17;;
26686;SDS011;14298;50.900;4.648;2023-06-19T11:30:49;5.00;;;2.42;;
26686;SDS011;14298;50.900;4.648;2023-06-19T11:33:19;2.95;;;1.92;;
26686;SDS011;14298;50.900;4.648;2023-06-19T11:35:50;3.15;;;1.72;;
26686;SDS011;14298;50.900;4.648;2023-06-19T11:38:20;2.45;;;1.95;;
26686;SDS011;14298;50.900;4.648;2023-06-19T11:40:48;2.87;;;2.17;;
26686;SDS011;14298;50.900;4.648;2023-06-19T11:46:01;1.80;;;1.52;;
26686;SDS011;14298;50.900;4.648;2023-06-19T11:48:30;2.45;;;1.80;;
26686;SDS011;14298;50.900;4.648;2023-06-19T11:50:58;1.82;;;1.60;;
26686;SDS011;14298;50.900;4.648;2023-06-19T11:53:26;4.10;;;2.37;;
26686;SDS011;14298;50.900;4.648;2023-06-19T11:55:54;2.87;;;2.50;;
26686;SDS011;14298;50.900;4.648;2023-06-19T11:58:22;3.05;;;2.17;;
26686;SDS011;14298;50.900;4.648;2023-06-19T12:00:50;3.10;;;2.02;;
26686;SDS011;14298;50.900;4.648;2023-06-19T12:03:18;4.55;;;2.12;;
26686;SDS011;14298;50.900;4.648;2023-06-19T12:05:46;1.87;;;1.75;;
26686;SDS011;14298;50.900;4.648;2023-06-19T12:08:14;4.03;;;2.02;;
26686;SDS011;14298;50.900;4.648;2023-06-19T12:10:42;2.30;;;1.52;;
26686;SDS011;14298;50.900;4.648;2023-06-19T12:13:10;4.03;;;2.27;;
26686;SDS011;14298;50.900;4.648;2023-06-19T12:15:38;2.83;;;1.62;;
26686;SDS011;14298;50.900;4.648;2023-06-19T12:18:06;2.65;;;1.70;;
26686;SDS011;14298;50.900;4.648;2023-06-19T12:20:35;2.12;;;1.90;;
26686;SDS011;14298;50.900;4.648;2023-06-19T12:23:03;2.47;;;1.67;;
26686;SDS011;14298;50.900;4.648;2023-06-19T12:25:31;2.77;;;2.25;;
26686;SDS011;14298;50.900;4.648;2023-06-19T12:27:59;2.05;;;1.85;;
26686;SDS011;14298;50.900;4.648;2023-06-19T12:30:27;2.65;;;1.70;;
26686;SDS011;14298;50.900;4.648;2023-06-19T12:32:55;2.10;;;1.80;;
26686;SDS011;14298;50.900;4.648;2023-06-19T12:35:23;2.20;;;1.67;;
26686;SDS011;14298;50.900;4.648;2023-06-19T12:37:52;4.58;;;2.35;;
26686;SDS011;14298;50.900;4.648;2023-06-19T12:40:21;2.80;;;1.95;;
26686;SDS011;14298;50.900;4.648;2023-06-19T12:42:50;2.45;;;1.72;;
26686;SDS011;14298;50.900;4.648;2023-06-19T12:45:18;1.50;;;1.40;;
26686;SDS011;14298;50.900;4.648;2023-06-19T12:47:46;2.30;;;1.72;;
26686;SDS011;14298;50.900;4.648;2023-06-19T12:50:14;1.75;;;1.55;;
26686;SDS011;14298;50.900;4.648;2023-06-19T12:52:42;1.82;;;1.60;;
26686;SDS011;14298;50.900;4.648;2023-06-19T12:55:10;3.20;;;1.70;;
26686;SDS011;14298;50.900;4.648;2023-06-19T12:57:38;2.22;;;1.70;;
26686;SDS011;14298;50.900;4.648;2023-06-19T13:00:10;6.95;;;3.80;;
26686;SDS011;14298;50.900;4.648;2023-06-19T13:02:39;8.35;;;2.08;;
26686;SDS011;14298;50.900;4.648;2023-06-19T13:05:09;3.15;;;1.90;;
26686;SDS011;14298;50.900;4.648;2023-06-19T13:07:37;1.75;;;1.50;;
26686;SDS011;14298;50.900;4.648;2023-06-19T13:10:05;1.47;;;1.27;;
26686;SDS011;14298;50.900;4.648;2023-06-19T13:12:34;3.20;;;1.57;;
26686;SDS011;14298;50.900;4.648;2023-06-19T13:15:02;4.72;;;2.12;;
26686;SDS011;14298;50.900;4.648;2023-06-19T13:17:30;9.65;;;2.17;;
26686;SDS011;14298;50.900;4.648;2023-06-19T13:19:58;1.40;;;1.30;;
26686;SDS011;14298;50.900;4.648;2023-06-19T13:22:26;3.12;;;1.98;;
26686;SDS011;14298;50.900;4.648;2023-06-19T13:24:54;1.98;;;1.32;;
26686;SDS011;14298;50.900;4.648;2023-06-19T13:27:22;2.10;;;1.45;;
26686;SDS011;14298;50.900;4.648;2023-06-19T13:29:50;1.77;;;1.45;;
26686;SDS011;14298;50.900;4.648;2023-06-19T13:32:18;2.70;;;1.35;;
26686;SDS011;14298;50.900;4.648;2023-06-19T13:34:46;2.85;;;1.52;;
26686;SDS011;14298;50.900;4.648;2023-06-19T13:37:14;1.52;;;1.05;;
26686;SDS011;14298;50.900;4.648;2023-06-19T13:39:42;1.95;;;1.55;;
26686;SDS011;14298;50.900;4.648;2023-06-19T13:42:10;1.60;;;1.35;;
26686;SDS011;14298;50.900;4.648;2023-06-19T13:44:38;0.85;;;0.80;;
26686;SDS011;14298;50.900;4.648;2023-06-19T13:47:06;2.95;;;1.70;;
26686;SDS011;14298;50.900;4.648;2023-06-19T13:49:34;15.65;;;1.95;;
26686;SDS011;14298;50.900;4.648;2023-06-19T13:52:02;4.47;;;2.15;;
26686;SDS011;14298;50.900;4.648;2023-06-19T13:54:30;1.67;;;1.27;;
26686;SDS011;14298;50.900;4.648;2023-06-19T13:56:58;1.27;;;1.10;;
26686;SDS011;14298;50.900;4.648;2023-06-19T13:59:26;4.33;;;1.82;;
26686;SDS011;14298;50.900;4.648;2023-06-19T14:01:54;1.55;;;1.30;;
26686;SDS011;14298;50.900;4.648;2023-06-19T14:04:22;1.17;;;1.07;;
26686;SDS011;14298;50.900;4.648;2023-06-19T14:06:50;1.82;;;1.52;;
26686;SDS011;14298;50.900;4.648;2023-06-19T14:09:18;2.87;;;1.35;;
26686;SDS011;14298;50.900;4.648;2023-06-19T14:11:47;2.37;;;1.52;;
26686;SDS011;14298;50.900;4.648;2023-06-19T14:14:15;1.82;;;1.50;;
26686;SDS011;14298;50.900;4.648;2023-06-19T14:16:43;2.75;;;1.67;;
26686;SDS011;14298;50.900;4.648;2023-06-19T14:19:11;1.55;;;1.45;;
26686;SDS011;14298;50.900;4.648;2023-06-19T14:21:39;1.52;;;1.22;;
26686;SDS011;14298;50.900;4.648;2023-06-19T14:24:07;2.12;;;1.25;;
26686;SDS011;14298;50.900;4.648;2023-06-19T14:26:35;1.25;;;1.15;;
26686;SDS011;14298;50.900;4.648;2023-06-19T14:29:03;1.32;;;1.17;;
26686;SDS011;14298;50.900;4.648;2023-06-19T14:31:31;1.12;;;1.10;;
26686;SDS011;14298;50.900;4.648;2023-06-19T14:33:59;1.10;;;0.90;;
26686;SDS011;14298;50.900;4.648;2023-06-19T14:36:27;1.25;;;1.15;;
26686;SDS011;14298;50.900;4.648;2023-06-19T14:38:55;5.33;;;1.25;;
26686;SDS011;14298;50.900;4.648;2023-06-19T14:41:23;1.85;;;1.35;;
26686;SDS011;14298;50.900;4.648;2023-06-19T14:43:51;1.65;;;1.32;;
26686;SDS011;14298;50.900;4.648;2023-06-19T14:46:19;1.67;;;1.32;;
26686;SDS011;14298;50.900;4.648;2023-06-19T14:48:47;1.82;;;1.17;;
26686;SDS011;14298;50.900;4.648;2023-06-19T14:51:15;6.37;;;1.42;;
26686;SDS011;14298;50.900;4.648;2023-06-19T14:53:43;2.30;;;1.17;;
26686;SDS011;14298;50.900;4.648;2023-06-19T14:56:11;1.65;;;1.10;;
26686;SDS011;14298;50.900;4.648;2023-06-19T14:58:39;6.70;;;2.05;;
26686;SDS011;14298;50.900;4.648;2023-06-19T15:01:07;1.20;;;0.85;;
26686;SDS011;14298;50.900;4.648;2023-06-19T15:03:35;1.75;;;1.42;;
26686;SDS011;14298;50.900;4.648;2023-06-19T15:06:03;0.80;;;0.80;;
26686;SDS011;14298;50.900;4.648;2023-06-19T15:08:31;1.80;;;0.95;;
26686;SDS011;14298;50.900;4.648;2023-06-19T15:11:01;2.02;;;1.20;;